sensor_id;sensor_type;location;lat;lon;timestamp;pressure;altitude;pressure_sealevel;temperature;humidity
38530;BME280;24301;54.332;48.386;2023-10-08T00:02:24;96050.63;;;3.83;89.48
38530;BME280;24301;54.332;48.386;2023-10-08T00:04:52;96030.50;;;3.88;89.64
38530;BME280;24301;54.332;48.386;2023-10-08T00:07:18;96042.59;;;3.89;89.83
38530;BME280;24301;54.332;48.386;2023-10-08T00:09:50;96039.09;;;3.90;90.16
38530;BME280;24301;54.332;48.386;2023-10-08T00:12:17;96024.41;;;3.89;90.34
38530;BME280;24301;54.332;48.386;2023-10-08T00:14:45;96001.81;;;3.91;90.95
38530;BME280;24301;54.332;48.386;2023-10-08T00:17:16;95987.84;;;3.95;91.28
38530;BME280;24301;54.332;48.386;2023-10-08T00:19:43;95978.84;;;4.04;90.30
38530;BME280;24301;54.332;48.386;2023-10-08T00:22:12;95987.38;;;4.08;90.86
38530;BME280;24301;54.332;48.386;2023-10-08T00:24:40;95949.44;;;4.02;91.45
38530;BME280;24301;54.332;48.386;2023-10-08T00:27:08;95970.31;;;4.00;92.02
38530;BME280;24301;54.332;48.386;2023-10-08T00:29:35;95962.16;;;4.10;91.75
38530;BME280;24301;54.332;48.386;2023-10-08T00:32:05;95942.41;;;4.06;92.20
38530;BME280;24301;54.332;48.386;2023-10-08T00:34:42;95937.88;;;4.11;92.12
38530;BME280;24301;54.332;48.386;2023-10-08T00:37:12;95932.63;;;4.12;92.67
38530;BME280;24301;54.332;48.386;2023-10-08T00:39:41;95940.34;;;4.14;93.36
38530;BME280;24301;54.332;48.386;2023-10-08T00:42:08;95927.25;;;4.17;93.33
38530;BME280;24301;54.332;48.386;2023-10-08T00:44:35;95890.63;;;4.23;93.65
38530;BME280;24301;54.332;48.386;2023-10-08T00:47:13;95899.88;;;4.30;93.57
38530;BME280;24301;54.332;48.386;2023-10-08T00:49:39;95905.09;;;4.30;93.78
38530;BME280;24301;54.332;48.386;2023-10-08T00:52:12;95904.25;;;4.30;93.44
38530;BME280;24301;54.332;48.386;2023-10-08T00:54:40;95884.03;;;4.37;93.70
38530;BME280;24301;54.332;48.386;2023-10-08T00:57:22;95831.09;;;4.38;94.11
38530;BME280;24301;54.332;48.386;2023-10-08T00:59:50;95858.03;;;4.37;94.43
38530;BME280;24301;54.332;48.386;2023-10-08T01:02:20;95817.97;;;4.41;94.66
38530;BME280;24301;54.332;48.386;2023-10-08T01:04:50;95832.75;;;4.40;95.05
38530;BME280;24301;54.332;48.386;2023-10-08T01:07:17;95855.00;;;4.48;94.99
38530;BME280;24301;54.332;48.386;2023-10-08T01:09:45;95834.06;;;4.51;95.74
38530;BME280;24301;54.332;48.386;2023-10-08T01:12:26;95805.16;;;4.58;96.04
38530;BME280;24301;54.332;48.386;2023-10-08T01:15:01;95818.28;;;4.55;96.03
38530;BME280;24301;54.332;48.386;2023-10-08T01:17:39;95794.69;;;4.60;96.19
38530;BME280;24301;54.332;48.386;2023-10-08T01:20:20;95800.41;;;4.68;96.15
38530;BME280;24301;54.332;48.386;2023-10-08T01:23:09;95783.72;;;4.74;95.55
38530;BME280;24301;54.332;48.386;2023-10-08T01:25:48;95769.94;;;4.72;95.55
38530;BME280;24301;54.332;48.386;2023-10-08T01:28:18;95787.22;;;4.73;96.44
38530;BME280;24301;54.332;48.386;2023-10-08T01:30:59;95741.16;;;4.75;96.46
38530;BME280;24301;54.332;48.386;2023-10-08T01:33:30;95768.25;;;4.71;97.00
38530;BME280;24301;54.332;48.386;2023-10-08T01:36:05;95731.44;;;4.79;97.36
38530;BME280;24301;54.332;48.386;2023-10-08T01:38:34;95720.94;;;4.82;97.35
38530;BME280;24301;54.332;48.386;2023-10-08T01:41:00;95715.66;;;4.83;97.60
38530;BME280;24301;54.332;48.386;2023-10-08T01:43:31;95714.47;;;4.91;97.42
38530;BME280;24301;54.332;48.386;2023-10-08T01:45:57;95663.31;;;4.89;97.58
38530;BME280;24301;54.332;48.386;2023-10-08T01:48:23;95709.94;;;4.96;97.57
38530;BME280;24301;54.332;48.386;2023-10-08T01:51:03;95669.06;;;4.98;98.59
38530;BME280;24301;54.332;48.386;2023-10-08T01:53:38;95679.31;;;5.01;98.30
38530;BME280;24301;54.332;48.386;2023-10-08T01:56:06;95695.72;;;5.03;98.46
38530;BME280;24301;54.332;48.386;2023-10-08T01:58:32;95675.66;;;5.05;98.29
38530;BME280;24301;54.332;48.386;2023-10-08T02:01:01;95661.41;;;5.14;98.14
38530;BME280;24301;54.332;48.386;2023-10-08T02:03:27;95666.03;;;5.26;98.09
38530;BME280;24301;54.332;48.386;2023-10-08T02:05:53;95665.84;;;5.31;97.68
38530;BME280;24301;54.332;48.386;2023-10-08T02:08:20;95656.97;;;5.35;98.03
38530;BME280;24301;54.332;48.386;2023-10-08T02:10:47;95631.63;;;5.39;97.27
38530;BME280;24301;54.332;48.386;2023-10-08T02:13:14;95617.38;;;5.46;97.59
38530;BME280;24301;54.332;48.386;2023-10-08T02:15:43;95621.53;;;5.50;97.00
38530;BME280;24301;54.332;48.386;2023-10-08T02:18:09;95609.84;;;5.59;97.01
38530;BME280;24301;54.332;48.386;2023-10-08T02:20:36;95627.16;;;5.60;97.02
38530;BME280;24301;54.332;48.386;2023-10-08T02:23:02;95607.16;;;5.60;96.11
38530;BME280;24301;54.332;48.386;2023-10-08T02:25:31;95621.53;;;5.69;96.48
38530;BME280;24301;54.332;48.386;2023-10-08T02:27:57;95585.72;;;5.73;96.67
38530;BME280;24301;54.332;48.386;2023-10-08T02:30:24;95574.53;;;5.71;96.11
38530;BME280;24301;54.332;48.386;2023-10-08T02:32:52;95589.78;;;5.79;95.58
38530;BME280;24301;54.332;48.386;2023-10-08T02:35:18;95576.44;;;5.85;95.81
38530;BME280;24301;54.332;48.386;2023-10-08T02:37:44;95586.56;;;5.91;94.88
38530;BME280;24301;54.332;48.386;2023-10-08T02:40:12;95568.19;;;5.94;95.17
38530;BME280;24301;54.332;48.386;2023-10-08T02:42:54;95567.19;;;5.97;94.77
38530;BME280;24301;54.332;48.386;2023-10-08T02:45:29;95579.22;;;5.99;94.98
38530;BME280;24301;54.332;48.386;2023-10-08T02:47:55;95575.56;;;6.03;94.93
38530;BME280;24301;54.332;48.386;2023-10-08T02:50:24;95552.66;;;6.10;94.53
38530;BME280;24301;54.332;48.386;2023-10-08T02:52:53;95535.81;;;6.16;94.53
38530;BME280;24301;54.332;48.386;2023-10-08T02:55:19;95568.69;;;6.20;94.37
38530;BME280;24301;54.332;48.386;2023-10-08T02:58:03;95527.94;;;6.17;94.27
38530;BME280;24301;54.332;48.386;2023-10-08T03:00:29;95555.22;;;6.28;93.96
38530;BME280;24301;54.332;48.386;2023-10-08T03:03:02;95551.69;;;6.29;93.82
38530;BME280;24301;54.332;48.386;2023-10-08T03:05:35;95520.38;;;6.29;93.76
38530;BME280;24301;54.332;48.386;2023-10-08T03:08:03;95553.25;;;6.33;93.55
38530;BME280;24301;54.332;48.386;2023-10-08T03:10:38;95543.47;;;6.37;93.83
38530;BME280;24301;54.332;48.386;2023-10-08T03:13:04;95539.94;;;6.38;93.99
38530;BME280;24301;54.332;48.386;2023-10-08T03:15:33;95519.66;;;6.43;94.02
38530;BME280;24301;54.332;48.386;2023-10-08T03:18:17;95519.59;;;6.44;94.04
38530;BME280;24301;54.332;48.386;2023-10-08T03:20:47;95522.16;;;6.46;94.00
38530;BME280;24301;54.332;48.386;2023-10-08T03:23:16;95518.59;;;6.47;93.81
38530;BME280;24301;54.332;48.386;2023-10-08T03:25:53;95516.75;;;6.49;93.93
38530;BME280;24301;54.332;48.386;2023-10-08T03:28:22;95525.41;;;6.50;94.73
38530;BME280;24301;54.332;48.386;2023-10-08T03:30:52;95520.03;;;6.53;94.29
38530;BME280;24301;54.332;48.386;2023-10-08T03:33:28;95517.25;;;6.56;95.26
38530;BME280;24301;54.332;48.386;2023-10-08T03:35:55;95522.25;;;6.60;95.42
38530;BME280;24301;54.332;48.386;2023-10-08T03:38:21;95519.47;;;6.64;95.20
38530;BME280;24301;54.332;48.386;2023-10-08T03:40:57;95519.47;;;6.64;95.16
38530;BME280;24301;54.332;48.386;2023-10-08T03:43:29;95512.22;;;6.69;95.32
38530;BME280;24301;54.332;48.386;2023-10-08T03:46:09;95496.31;;;6.73;95.49
38530;BME280;24301;54.332;48.386;2023-10-08T03:48:44;95510.81;;;6.79;95.26
38530;BME280;24301;54.332;48.386;2023-10-08T03:51:12;95502.06;;;6.80;95.48
38530;BME280;24301;54.332;48.386;2023-10-08T03:53:39;95507.78;;;6.87;95.52
38530;BME280;24301;54.332;48.386;2023-10-08T03:56:26;95515.28;;;6.93;95.85
38530;BME280;24301;54.332;48.386;2023-10-08T03:58:55;95504.50;;;6.99;95.38
38530;BME280;24301;54.332;48.386;2023-10-08T04:01:26;95504.25;;;7.04;95.26
38530;BME280;24301;54.332;48.386;2023-10-08T04:03:57;95512.69;;;7.09;95.49
38530;BME280;24301;54.332;48.386;2023-10-08T04:06:27;95508.38;;;7.08;95.42
38530;BME280;24301;54.332;48.386;2023-10-08T04:09:05;95521.19;;;7.13;95.28
38530;BME280;24301;54.332;48.386;2023-10-08T04:11:34;95523.69;;;7.14;95.31
38530;BME280;24301;54.332;48.386;2023-10-08T04:14:15;95524.38;;;7.18;95.07
38530;BME280;24301;54.332;48.386;2023-10-08T04:16:44;95523.28;;;7.22;94.49
38530;BME280;24301;54.332;48.386;2023-10-08T04:19:11;95527.34;;;7.28;94.55
38530;BME280;24301;54.332;48.386;2023-10-08T04:21:38;95529.59;;;7.34;94.42
38530;BME280;24301;54.332;48.386;2023-10-08T04:24:10;95534.47;;;7.40;94.03
38530;BME280;24301;54.332;48.386;2023-10-08T04:26:39;95539.38;;;7.46;94.17
38530;BME280;24301;54.332;48.386;2023-10-08T04:29:06;95533.13;;;7.49;93.89
38530;BME280;24301;54.332;48.386;2023-10-08T04:31:35;95530.91;;;7.57;93.11
38530;BME280;24301;54.332;48.386;2023-10-08T04:34:12;95539.34;;;7.62;93.36
38530;BME280;24301;54.332;48.386;2023-10-08T04:36:43;95548.69;;;7.67;92.71
38530;BME280;24301;54.332;48.386;2023-10-08T04:39:14;95533.59;;;7.72;92.36
38530;BME280;24301;54.332;48.386;2023-10-08T04:41:49;95542.84;;;7.78;91.85
38530;BME280;24301;54.332;48.386;2023-10-08T04:44:20;95544.84;;;7.88;91.71
38530;BME280;24301;54.332;48.386;2023-10-08T04:46:47;95534.97;;;8.08;91.47
38530;BME280;24301;54.332;48.386;2023-10-08T04:49:19;95544.13;;;9.04;90.73
38530;BME280;24301;54.332;48.386;2023-10-08T04:52:01;95559.44;;;9.52;86.30
38530;BME280;24301;54.332;48.386;2023-10-08T04:54:43;95554.09;;;10.21;83.92
38530;BME280;24301;54.332;48.386;2023-10-08T04:57:24;95557.19;;;10.41;80.33
38530;BME280;24301;54.332;48.386;2023-10-08T04:59:55;95558.84;;;11.07;76.95
38530;BME280;24301;54.332;48.386;2023-10-08T05:02:23;95551.88;;;11.81;74.62
38530;BME280;24301;54.332;48.386;2023-10-08T05:05:10;95551.13;;;12.50;71.44
38530;BME280;24301;54.332;48.386;2023-10-08T05:07:36;95545.47;;;12.32;68.26
38530;BME280;24301;54.332;48.386;2023-10-08T05:10:12;95559.66;;;13.33;67.12
38530;BME280;24301;54.332;48.386;2023-10-08T05:12:52;95567.28;;;15.31;61.74
38530;BME280;24301;54.332;48.386;2023-10-08T05:15:41;95556.13;;;15.27;57.72
38530;BME280;24301;54.332;48.386;2023-10-08T05:18:16;95571.88;;;14.34;57.54
38530;BME280;24301;54.332;48.386;2023-10-08T05:20:50;95571.28;;;13.65;58.33
38530;BME280;24301;54.332;48.386;2023-10-08T05:23:18;95557.38;;;13.40;58.93
38530;BME280;24301;54.332;48.386;2023-10-08T05:25:51;95571.78;;;14.24;55.90
38530;BME280;24301;54.332;48.386;2023-10-08T05:28:27;95560.50;;;14.22;56.11
38530;BME280;24301;54.332;48.386;2023-10-08T05:30:55;95574.56;;;13.90;56.09
38530;BME280;24301;54.332;48.386;2023-10-08T05:33:37;95592.03;;;14.35;56.48
38530;BME280;24301;54.332;48.386;2023-10-08T05:36:12;95595.53;;;14.03;55.76
38530;BME280;24301;54.332;48.386;2023-10-08T05:38:58;95576.25;;;13.91;56.16
38530;BME280;24301;54.332;48.386;2023-10-08T05:41:41;95594.34;;;13.06;57.20
38530;BME280;24301;54.332;48.386;2023-10-08T05:44:19;95578.56;;;12.59;58.31
38530;BME280;24301;54.332;48.386;2023-10-08T05:46:45;95596.44;;;14.88;54.88
38530;BME280;24301;54.332;48.386;2023-10-08T05:49:37;95587.91;;;16.66;49.32
38530;BME280;24301;54.332;48.386;2023-10-08T05:52:20;95587.66;;;16.30;46.38
38530;BME280;24301;54.332;48.386;2023-10-08T05:55:07;95606.97;;;14.78;47.99
38530;BME280;24301;54.332;48.386;2023-10-08T05:58:03;95604.19;;;14.26;47.89
38530;BME280;24301;54.332;48.386;2023-10-08T06:00:50;95614.88;;;16.32;45.53
38530;BME280;24301;54.332;48.386;2023-10-08T06:03:17;95598.25;;;18.47;40.34
38530;BME280;24301;54.332;48.386;2023-10-08T06:06:04;95580.34;;;20.23;36.00
38530;BME280;24301;54.332;48.386;2023-10-08T06:08:37;95562.34;;;20.75;34.01
38530;BME280;24301;54.332;48.386;2023-10-08T06:11:38;95587.91;;;21.50;30.85
38530;BME280;24301;54.332;48.386;2023-10-08T06:14:11;95610.06;;;22.62;32.12
38530;BME280;24301;54.332;48.386;2023-10-08T06:16:54;95611.25;;;23.36;30.22
38530;BME280;24301;54.332;48.386;2023-10-08T06:19:50;95620.63;;;23.17;30.08
38530;BME280;24301;54.332;48.386;2023-10-08T06:22:19;95622.09;;;22.03;30.38
38530;BME280;24301;54.332;48.386;2023-10-08T06:24:49;95608.81;;;19.63;32.97
38530;BME280;24301;54.332;48.386;2023-10-08T06:27:15;95628.09;;;18.59;34.86
38530;BME280;24301;54.332;48.386;2023-10-08T06:29:43;95606.75;;;18.95;34.27
38530;BME280;24301;54.332;48.386;2023-10-08T06:32:10;95624.94;;;17.53;35.84
38530;BME280;24301;54.332;48.386;2023-10-08T06:34:37;95581.25;;;16.43;36.73
38530;BME280;24301;54.332;48.386;2023-10-08T06:37:06;95649.44;;;17.75;36.37
38530;BME280;24301;54.332;48.386;2023-10-08T06:39:34;95643.09;;;19.66;33.30
38530;BME280;24301;54.332;48.386;2023-10-08T06:42:14;95658.63;;;19.18;34.09
38530;BME280;24301;54.332;48.386;2023-10-08T06:44:41;95637.25;;;18.11;34.70
38530;BME280;24301;54.332;48.386;2023-10-08T06:47:13;95679.00;;;16.46;36.92
38530;BME280;24301;54.332;48.386;2023-10-08T06:49:44;95659.75;;;14.90;38.77
38530;BME280;24301;54.332;48.386;2023-10-08T06:52:10;95683.88;;;16.31;38.15
38530;BME280;24301;54.332;48.386;2023-10-08T06:54:38;95609.94;;;17.90;34.28
38530;BME280;24301;54.332;48.386;2023-10-08T06:57:04;95650.00;;;15.74;37.04
38530;BME280;24301;54.332;48.386;2023-10-08T06:59:31;95676.34;;;14.92;39.43
38530;BME280;24301;54.332;48.386;2023-10-08T07:01:57;95688.00;;;14.89;39.21
38530;BME280;24301;54.332;48.386;2023-10-08T07:04:24;95656.59;;;14.10;40.75
38530;BME280;24301;54.332;48.386;2023-10-08T07:06:51;95699.47;;;14.02;41.43
38530;BME280;24301;54.332;48.386;2023-10-08T07:09:17;95661.50;;;15.94;38.04
38530;BME280;24301;54.332;48.386;2023-10-08T07:11:56;95628.09;;;16.22;36.63
38530;BME280;24301;54.332;48.386;2023-10-08T07:14:27;95660.97;;;17.18;35.98
38530;BME280;24301;54.332;48.386;2023-10-08T07:16:54;95634.63;;;19.09;33.02
38530;BME280;24301;54.332;48.386;2023-10-08T07:19:30;95696.81;;;19.88;31.48
38530;BME280;24301;54.332;48.386;2023-10-08T07:22:11;95701.06;;;20.66;29.57
38530;BME280;24301;54.332;48.386;2023-10-08T07:24:53;95694.41;;;20.62;29.76
38530;BME280;24301;54.332;48.386;2023-10-08T07:27:20;95701.09;;;21.24;29.27
38530;BME280;24301;54.332;48.386;2023-10-08T07:29:58;95669.03;;;21.49;28.47
38530;BME280;24301;54.332;48.386;2023-10-08T07:32:32;95688.59;;;21.25;28.72
38530;BME280;24301;54.332;48.386;2023-10-08T07:35:00;95691.06;;;20.77;29.17
38530;BME280;24301;54.332;48.386;2023-10-08T07:37:46;95707.97;;;18.21;32.66
38530;BME280;24301;54.332;48.386;2023-10-08T07:40:16;95717.25;;;17.70;33.99
38530;BME280;24301;54.332;48.386;2023-10-08T07:42:42;95712.59;;;16.26;35.54
38530;BME280;24301;54.332;48.386;2023-10-08T07:45:09;95721.03;;;16.80;35.57
38530;BME280;24301;54.332;48.386;2023-10-08T07:47:43;95715.03;;;17.65;33.94
38530;BME280;24301;54.332;48.386;2023-10-08T07:50:09;95705.09;;;16.60;34.50
38530;BME280;24301;54.332;48.386;2023-10-08T07:52:41;95722.31;;;17.63;33.81
38530;BME280;24301;54.332;48.386;2023-10-08T07:55:10;95733.91;;;19.55;31.58
38530;BME280;24301;54.332;48.386;2023-10-08T07:57:43;95707.91;;;19.48;31.04
38530;BME280;24301;54.332;48.386;2023-10-08T08:00:09;95735.13;;;18.61;32.31
38530;BME280;24301;54.332;48.386;2023-10-08T08:02:48;95747.53;;;16.80;35.22
38530;BME280;24301;54.332;48.386;2023-10-08T08:05:15;95763.41;;;15.47;36.87
38530;BME280;24301;54.332;48.386;2023-10-08T08:07:46;95746.94;;;14.25;38.76
38530;BME280;24301;54.332;48.386;2023-10-08T08:10:12;95765.81;;;13.52;40.58
38530;BME280;24301;54.332;48.386;2023-10-08T08:12:40;95775.75;;;12.76;41.86
38530;BME280;24301;54.332;48.386;2023-10-08T08:15:06;95792.63;;;12.25;42.99
38530;BME280;24301;54.332;48.386;2023-10-08T08:17:42;95800.72;;;11.96;43.90
38530;BME280;24301;54.332;48.386;2023-10-08T08:20:08;95800.34;;;11.89;44.64
38530;BME280;24301;54.332;48.386;2023-10-08T08:22:44;95814.41;;;12.27;44.70
38530;BME280;24301;54.332;48.386;2023-10-08T08:25:20;95818.50;;;12.31;44.28
38530;BME280;24301;54.332;48.386;2023-10-08T08:28:08;95805.25;;;12.20;44.85
38530;BME280;24301;54.332;48.386;2023-10-08T08:30:52;95819.16;;;11.70;46.03
38530;BME280;24301;54.332;48.386;2023-10-08T08:33:19;95829.06;;;11.28;46.80
38530;BME280;24301;54.332;48.386;2023-10-08T08:36:01;95840.16;;;11.18;48.76
38530;BME280;24301;54.332;48.386;2023-10-08T08:38:27;95825.06;;;11.35;47.67
38530;BME280;24301;54.332;48.386;2023-10-08T08:41:02;95838.63;;;11.29;48.07
38530;BME280;24301;54.332;48.386;2023-10-08T08:43:34;95829.88;;;11.28;48.30
38530;BME280;24301;54.332;48.386;2023-10-08T08:46:03;95835.25;;;11.27;48.38
38530;BME280;24301;54.332;48.386;2023-10-08T08:48:32;95815.16;;;11.13;48.68
38530;BME280;24301;54.332;48.386;2023-10-08T08:50:59;95847.69;;;10.97;49.08
38530;BME280;24301;54.332;48.386;2023-10-08T08:53:26;95832.03;;;11.09;49.19
38530;BME280;24301;54.332;48.386;2023-10-08T09:08:55;95825.81;;;11.50;45.17
38530;BME280;24301;54.332;48.386;2023-10-08T09:11:39;95855.88;;;11.46;44.97
38530;BME280;24301;54.332;48.386;2023-10-08T09:14:07;95853.66;;;11.27;45.60
38530;BME280;24301;54.332;48.386;2023-10-08T09:16:36;95860.56;;;11.15;46.06
38530;BME280;24301;54.332;48.386;2023-10-08T09:19:02;95868.09;;;11.06;46.81
38530;BME280;24301;54.332;48.386;2023-10-08T09:21:37;95869.53;;;10.98;47.38
38530;BME280;24301;54.332;48.386;2023-10-08T09:24:03;95883.41;;;10.87;48.55
38530;BME280;24301;54.332;48.386;2023-10-08T09:26:34;95891.63;;;10.53;50.47
38530;BME280;24301;54.332;48.386;2023-10-08T09:29:05;95872.13;;;10.14;52.76
38530;BME280;24301;54.332;48.386;2023-10-08T09:31:33;95899.88;;;10.03;53.15
38530;BME280;24301;54.332;48.386;2023-10-08T09:34:03;95902.88;;;10.12;53.56
38530;BME280;24301;54.332;48.386;2023-10-08T09:36:29;95889.56;;;10.29;53.96
38530;BME280;24301;54.332;48.386;2023-10-08T09:39:01;95900.25;;;10.26;53.37
38530;BME280;24301;54.332;48.386;2023-10-08T09:41:31;95901.75;;;10.30;53.57
38530;BME280;24301;54.332;48.386;2023-10-08T09:44:00;95901.88;;;10.43;53.95
38530;BME280;24301;54.332;48.386;2023-10-08T09:46:31;95896.50;;;10.45;53.86
38530;BME280;24301;54.332;48.386;2023-10-08T09:49:01;95911.69;;;10.54;53.72
38530;BME280;24301;54.332;48.386;2023-10-08T09:51:30;95896.88;;;10.53;53.41
38530;BME280;24301;54.332;48.386;2023-10-08T09:56:36;95902.97;;;10.25;53.13
38530;BME280;24301;54.332;48.386;2023-10-08T09:59:05;95905.97;;;10.33;52.49
38530;BME280;24301;54.332;48.386;2023-10-08T10:01:33;95896.19;;;10.35;51.50
38530;BME280;24301;54.332;48.386;2023-10-08T10:03:59;95886.00;;;10.45;51.56
38530;BME280;24301;54.332;48.386;2023-10-08T10:06:26;95889.69;;;10.42;50.60
38530;BME280;24301;54.332;48.386;2023-10-08T10:08:55;95887.22;;;10.39;49.76
38530;BME280;24301;54.332;48.386;2023-10-08T10:11:30;95899.13;;;10.45;49.46
38530;BME280;24301;54.332;48.386;2023-10-08T10:14:01;95869.56;;;10.56;48.48
38530;BME280;24301;54.332;48.386;2023-10-08T10:16:27;95894.59;;;10.61;47.57
38530;BME280;24301;54.332;48.386;2023-10-08T10:18:59;95880.00;;;10.57;45.10
38530;BME280;24301;54.332;48.386;2023-10-08T10:21:31;95870.44;;;10.56;43.98
38530;BME280;24301;54.332;48.386;2023-10-08T10:23:59;95871.91;;;10.60;44.00
38530;BME280;24301;54.332;48.386;2023-10-08T10:26:35;95890.03;;;10.65;43.80
38530;BME280;24301;54.332;48.386;2023-10-08T10:31:41;95876.53;;;10.84;44.42
38530;BME280;24301;54.332;48.386;2023-10-08T10:34:11;95888.81;;;10.84;43.80
38530;BME280;24301;54.332;48.386;2023-10-08T10:36:39;95905.25;;;10.87;44.12
38530;BME280;24301;54.332;48.386;2023-10-08T10:39:06;95901.66;;;10.88;44.00
38530;BME280;24301;54.332;48.386;2023-10-08T10:42:04;95895.19;;;10.94;43.84
38530;BME280;24301;54.332;48.386;2023-10-08T10:44:33;95897.06;;;10.92;43.87
38530;BME280;24301;54.332;48.386;2023-10-08T10:47:02;95904.25;;;11.03;43.87
38530;BME280;24301;54.332;48.386;2023-10-08T10:49:45;95907.38;;;10.95;43.32
38530;BME280;24301;54.332;48.386;2023-10-08T10:52:19;95919.13;;;10.89;43.10
38530;BME280;24301;54.332;48.386;2023-10-08T10:54:55;95891.41;;;10.98;42.98
38530;BME280;24301;54.332;48.386;2023-10-08T10:57:26;95896.81;;;10.82;42.28
38530;BME280;24301;54.332;48.386;2023-10-08T11:00:03;95899.28;;;10.71;42.10
38530;BME280;24301;54.332;48.386;2023-10-08T11:02:45;95880.50;;;10.77;42.61
38530;BME280;24301;54.332;48.386;2023-10-08T11:05:15;95889.69;;;10.84;42.48
38530;BME280;24301;54.332;48.386;2023-10-08T11:07:47;95924.78;;;10.83;42.59
38530;BME280;24301;54.332;48.386;2023-10-08T11:10:14;95913.88;;;10.89;42.62
38530;BME280;24301;54.332;48.386;2023-10-08T11:12:42;95924.38;;;10.89;42.75
38530;BME280;24301;54.332;48.386;2023-10-08T11:15:13;95930.78;;;10.85;42.75
38530;BME280;24301;54.332;48.386;2023-10-08T11:17:44;95923.28;;;10.79;43.30
38530;BME280;24301;54.332;48.386;2023-10-08T11:20:27;95910.53;;;10.73;43.50
38530;BME280;24301;54.332;48.386;2023-10-08T11:22:54;95928.16;;;10.71;43.80
38530;BME280;24301;54.332;48.386;2023-10-08T11:25:23;95928.75;;;10.76;44.68
38530;BME280;24301;54.332;48.386;2023-10-08T11:27:56;95934.47;;;10.96;45.45
38530;BME280;24301;54.332;48.386;2023-10-08T11:30:34;95945.56;;;11.01;45.57
38530;BME280;24301;54.332;48.386;2023-10-08T11:33:01;95923.28;;;11.06;46.08
38530;BME280;24301;54.332;48.386;2023-10-08T11:35:31;95911.56;;;10.98;46.64
38530;BME280;24301;54.332;48.386;2023-10-08T11:38:00;95977.78;;;10.75;47.11
38530;BME280;24301;54.332;48.386;2023-10-08T11:40:29;95960.06;;;10.35;48.17
38530;BME280;24301;54.332;48.386;2023-10-08T11:43:12;95969.88;;;9.88;49.13
38530;BME280;24301;54.332;48.386;2023-10-08T11:45:42;95965.03;;;9.66;50.22
38530;BME280;24301;54.332;48.386;2023-10-08T11:48:14;95972.88;;;9.52;50.82
38530;BME280;24301;54.332;48.386;2023-10-08T11:50:43;95951.94;;;9.36;51.38
38530;BME280;24301;54.332;48.386;2023-10-08T11:53:09;95982.44;;;9.20;51.45
38530;BME280;24301;54.332;48.386;2023-10-08T11:55:37;95965.66;;;9.25;51.46
38530;BME280;24301;54.332;48.386;2023-10-08T11:58:05;95975.03;;;9.29;50.82
38530;BME280;24301;54.332;48.386;2023-10-08T12:00:38;95972.56;;;9.26;49.98
38530;BME280;24301;54.332;48.386;2023-10-08T12:03:15;95967.72;;;9.34;48.87
38530;BME280;24301;54.332;48.386;2023-10-08T12:05:46;95971.63;;;9.43;48.35
38530;BME280;24301;54.332;48.386;2023-10-08T12:08:17;95975.38;;;9.53;48.24
38530;BME280;24301;54.332;48.386;2023-10-08T12:10:46;95978.56;;;9.58;47.93
38530;BME280;24301;54.332;48.386;2023-10-08T12:13:14;95971.31;;;9.63;48.10
38530;BME280;24301;54.332;48.386;2023-10-08T12:15:44;95966.53;;;9.70;47.98
38530;BME280;24301;54.332;48.386;2023-10-08T12:18:10;95974.88;;;9.62;48.10
38530;BME280;24301;54.332;48.386;2023-10-08T12:20:52;95989.25;;;9.55;48.25
38530;BME280;24301;54.332;48.386;2023-10-08T12:23:20;95980.13;;;9.46;48.74
38530;BME280;24301;54.332;48.386;2023-10-08T12:25:52;95988.78;;;9.48;49.00
38530;BME280;24301;54.332;48.386;2023-10-08T12:28:24;96002.63;;;9.51;49.27
38530;BME280;24301;54.332;48.386;2023-10-08T12:30:51;95998.22;;;9.51;49.34
38530;BME280;24301;54.332;48.386;2023-10-08T12:33:22;96012.81;;;9.41;49.58
38530;BME280;24301;54.332;48.386;2023-10-08T12:35:50;96004.69;;;9.29;49.35
38530;BME280;24301;54.332;48.386;2023-10-08T12:38:24;96013.13;;;9.18;49.95
38530;BME280;24301;54.332;48.386;2023-10-08T12:40:54;96017.22;;;9.08;50.34
38530;BME280;24301;54.332;48.386;2023-10-08T12:43:22;96036.91;;;8.99;50.67
38530;BME280;24301;54.332;48.386;2023-10-08T12:45:51;96022.94;;;8.83;51.65
38530;BME280;24301;54.332;48.386;2023-10-08T12:48:25;96042.50;;;8.59;52.40
38530;BME280;24301;54.332;48.386;2023-10-08T12:50:54;96040.97;;;8.38;53.11
38530;BME280;24301;54.332;48.386;2023-10-08T12:53:28;96032.84;;;8.09;54.03
38530;BME280;24301;54.332;48.386;2023-10-08T12:56:01;96049.31;;;7.93;55.31
38530;BME280;24301;54.332;48.386;2023-10-08T12:58:33;96039.31;;;7.84;55.80
38530;BME280;24301;54.332;48.386;2023-10-08T13:01:05;96039.84;;;7.73;55.95
38530;BME280;24301;54.332;48.386;2023-10-08T13:03:32;96064.53;;;7.67;56.17
38530;BME280;24301;54.332;48.386;2023-10-08T13:05:59;96058.63;;;7.64;56.59
38530;BME280;24301;54.332;48.386;2023-10-08T13:08:31;96059.31;;;7.67;56.57
38530;BME280;24301;54.332;48.386;2023-10-08T13:10:59;96058.47;;;7.67;56.36
38530;BME280;24301;54.332;48.386;2023-10-08T13:13:27;96041.00;;;7.67;56.41
38530;BME280;24301;54.332;48.386;2023-10-08T13:15:54;96059.16;;;7.70;56.78
38530;BME280;24301;54.332;48.386;2023-10-08T13:18:23;96053.47;;;7.80;56.61
38530;BME280;24301;54.332;48.386;2023-10-08T13:20:52;96043.03;;;7.80;56.15
38530;BME280;24301;54.332;48.386;2023-10-08T13:23:18;96045.25;;;7.70;55.74
38530;BME280;24301;54.332;48.386;2023-10-08T13:25:46;96044.63;;;7.65;55.96
38530;BME280;24301;54.332;48.386;2023-10-08T13:28:22;96054.28;;;7.45;56.66
38530;BME280;24301;54.332;48.386;2023-10-08T13:30:54;96077.19;;;7.40;56.90
38530;BME280;24301;54.332;48.386;2023-10-08T13:33:23;96058.81;;;7.22;57.78
38530;BME280;24301;54.332;48.386;2023-10-08T13:35:49;96074.94;;;7.13;57.97
38530;BME280;24301;54.332;48.386;2023-10-08T13:38:19;96086.47;;;7.09;58.76